Twin Rocks, Oregon
Current Conditions -  °F | °C
As of 8:15 AM on Saturday 20 Dec 2014 (Local Time) from KTMK Reporting Station
Heavy Rain Heavy Rain  
Wind Chill: 55°   Ceiling: 1200
Heat Index: 55°   Visibility: 3mi
Dew Point: 54°   Wind: 17mph
Humidity: 94%   Direction: 190°S
Pressure: 29.64"   Gusts: 29mph
Location:  45.6132°N, 123.654°W
Report Text: KTMK 201615Z AUTO 19015G25KT 3SM +RA OVC012 13/12 A2964 RMK AO2 P0009
Loading
Personal Weather Stations






























Interactive Weather Map New forecast layout! Learn more

10-Day Weather Forecast

Advertisements
Track Severe Weather on mobile